Pagina principale
METAR-TAF:

METAR-TAF

Aeroporti :

Hammamet, Tunisia

Aeroporto di Enfida-Hammamet

latitudine: 36-04-34N, longitudine: 10-26-19E, altezza: 6 m

Osservazione

Il bollettino è stato emesso 28 minuti fa, alle 11:30 UTC
Vento 17 kt da ovest/nord-ovest
Temperature 19°C
Umidità 52%
Pressione 1018 hPa
Visibilità 10 km o più
nessuna nube inferiore a 1500 m e nessun cumulonembo

METAR: DTNH 191130Z AUTO 30017KT CAVOK 19/09 Q1018

Ora: 12:58 (11:58 UTC)

Previsione

Il bollettino è stato emesso 55 minuti fa, alle 11:03 UTC
Previsione valida dal 19 alle 12 UTC al 20 alle 12 UTC
Vento 17 kt da ovest/nord-ovest
Visibilità 10 km o più
nessuna nube inferiore a 1500 m e nessun cumulonembo
Temporaneamente
dal 19 alle 22 UTC al 20 alle 10 UTC
Vento 6 kt da ovest

TAF: DTNH 191103Z 1912/2012 30017KT CAVOK TEMPO 1922/2010 26006KT

Osservazioni e previsioni meteorologiche di più di 4000 aeroporti (messaggi METAR e TAF).

Le stazioni disponibili sono rappresentate dai dischi gialli e rossi sulla carta.

Puntare il mouse per vedere il nome della stazione.

Clicca sopra per visualizzare le osservazioni e previsioni meteorologiche.

Per cambiare la mappa : fare clic sui pulsanti verdi con una croce nera per ingrandire, il pulsante verde con un trattino per diminuire, o sulla freccia verde per le mappe adiacenti.


METAR-TAF: